Time;durP1;ratioP1;P1;durP2;ratioP2;P2;SDS_P1;SDS_P2;PMS_P1;PMS_P2;Temp;Humidity;BMP_temperature;BMP_pressure;BME280_temperature;BME280_humidity;BME280_pressure;Samples;Min_cycle;Max_cycle;Signal;HPM_P1;HPM_P2
2021/06/06 00:00:32;;;;;;;44.03;31.08;;;;;;;;;;5014874;28;20201;-73
2021/06/06 00:02:59;;;;;;;45.65;31.95;;;;;;;;;;5007891;28;20714;-73
2021/06/06 00:05:30;;;;;;;44.42;31.50;;;;;;;;;;5010341;28;20669;-72
2021/06/06 00:07:56;;;;;;;48.80;31.92;;;;;;;;;;5010709;28;20182;-73
2021/06/06 00:10:21;;;;;;;46.78;31.60;;;;;;;;;;5008412;28;20665;-73
2021/06/06 00:12:46;;;;;;;42.88;31.80;;;;;;;;;;5013577;28;20189;-70
2021/06/06 00:15:14;;;;;;;41.97;30.85;;;;;;;;;;5003668;28;20708;-72
2021/06/06 00:17:40;;;;;;;45.85;30.25;;;;;;;;;;5009294;28;20660;-71
2021/06/06 00:20:08;;;;;;;42.72;28.60;;;;;;;;;;5001629;28;20194;-72
2021/06/06 00:22:34;;;;;;;40.35;27.70;;;;;;;;;;5014517;28;20190;-70
2021/06/06 00:24:59;;;;;;;40.20;28.55;;;;;;;;;;5005028;28;20201;-73
2021/06/06 00:27:26;;;;;;;39.25;26.33;;;;;;;;;;5010256;28;20247;-72
2021/06/06 00:29:51;;;;;;;35.95;25.92;;;;;;;;;;5007835;28;20236;-69
2021/06/06 00:32:17;;;;;;;35.85;25.15;;;;;;;;;;5011366;28;20194;-68
2021/06/06 00:34:42;;;;;;;36.60;25.65;;;;;;;;;;5004752;28;20190;-71
2021/06/06 00:37:09;;;;;;;36.78;26.17;;;;;;;;;;5010349;28;20627;-70
2021/06/06 00:39:34;;;;;;;33.58;25.10;;;;;;;;;;5012167;28;20198;-71
2021/06/06 00:42:00;;;;;;;36.80;26.30;;;;;;;;;;5003170;28;20232;-70
2021/06/06 00:44:26;;;;;;;36.38;26.70;;;;;;;;;;5009699;28;20182;-71
2021/06/06 00:46:52;;;;;;;42.88;28.45;;;;;;;;;;5000557;28;21001;-72
2021/06/06 00:49:18;;;;;;;41.00;28.63;;;;;;;;;;5009663;28;20554;-71
2021/06/06 00:51:56;;;;;;;37.90;28.42;;;;;;;;;;5003197;28;21986;-72
2021/06/06 00:54:23;;;;;;;42.03;26.52;;;;;;;;;;5013443;28;20194;-73
2021/06/06 00:56:52;;;;;;;41.42;27.38;;;;;;;;;;5009513;28;20195;-71
2021/06/06 00:59:21;;;;;;;42.80;28.63;;;;;;;;;;5011231;28;20190;-73
2021/06/06 01:01:47;;;;;;;44.72;29.15;;;;;;;;;;5003348;28;20214;-70
2021/06/06 01:04:13;;;;;;;41.08;28.50;;;;;;;;;;5009947;28;20201;-70
2021/06/06 01:06:48;;;;;;;40.58;30.17;;;;;;;;;;5002570;28;20332;-71
2021/06/06 01:09:16;;;;;;;42.28;30.40;;;;;;;;;;5010931;28;20220;-72
2021/06/06 01:12:00;;;;;;;39.35;29.67;;;;;;;;;;5001968;28;23891;-73
2021/06/06 01:14:48;;;;;;;38.88;27.67;;;;;;;;;;5011710;28;20827;-73
2021/06/06 01:17:25;;;;;;;47.30;29.00;;;;;;;;;;5003890;28;20190;-71
2021/06/06 01:20:11;;;;;;;39.50;29.25;;;;;;;;;;5012363;28;20203;-71
2021/06/06 01:22:47;;;;;;;44.10;29.73;;;;;;;;;;5000865;28;20186;-72
2021/06/06 01:25:22;;;;;;;38.38;28.55;;;;;;;;;;5010158;28;20201;-70
2021/06/06 01:28:07;;;;;;;48.55;30.20;;;;;;;;;;5004042;28;20209;-71
2021/06/06 01:30:37;;;;;;;40.40;29.08;;;;;;;;;;5010172;28;20266;-71
2021/06/06 01:33:10;;;;;;;37.70;29.08;;;;;;;;;;5002433;28;20557;-70
2021/06/06 01:35:53;;;;;;;38.40;28.55;;;;;;;;;;5011491;28;20226;-71
2021/06/06 01:38:23;;;;;;;39.22;28.80;;;;;;;;;;4999457;28;20332;-71
2021/06/06 01:40:53;;;;;;;37.63;28.77;;;;;;;;;;5010206;28;20308;-70
2021/06/06 01:43:23;;;;;;;42.13;29.48;;;;;;;;;;5002632;28;20234;-70
2021/06/06 01:45:56;;;;;;;37.97;27.05;;;;;;;;;;5011833;28;20206;-72
2021/06/06 01:48:21;;;;;;;36.50;28.20;;;;;;;;;;5002239;28;20459;-71
2021/06/06 01:50:54;;;;;;;38.83;28.55;;;;;;;;;;5009558;28;20197;-70
2021/06/06 01:53:21;;;;;;;41.70;28.20;;;;;;;;;;5025707;28;20277;-70
2021/06/06 01:55:50;;;;;;;39.50;28.58;;;;;;;;;;5002659;28;20182;-71
2021/06/06 01:58:16;;;;;;;36.95;28.45;;;;;;;;;;5008277;28;20214;-71
2021/06/06 02:00:52;;;;;;;36.08;28.42;;;;;;;;;;5001094;28;20741;-70
2021/06/06 02:03:18;;;;;;;37.80;27.42;;;;;;;;;;5012816;28;20201;-70
2021/06/06 02:05:43;;;;;;;40.72;28.80;;;;;;;;;;5005901;28;20215;-74
2021/06/06 02:08:15;;;;;;;40.00;29.13;;;;;;;;;;5015819;28;20199;-69
2021/06/06 02:10:45;;;;;;;39.22;28.70;;;;;;;;;;5005953;28;20197;-73
2021/06/06 02:13:19;;;;;;;40.40;29.38;;;;;;;;;;5011913;28;20277;-72
2021/06/06 02:15:47;;;;;;;44.13;29.58;;;;;;;;;;5005191;28;20677;-71
2021/06/06 02:18:12;;;;;;;42.58;30.30;;;;;;;;;;5014458;28;20178;-70
2021/06/06 02:20:43;;;;;;;42.42;30.58;;;;;;;;;;5005436;28;20228;-71
2021/06/06 02:23:10;;;;;;;40.78;30.25;;;;;;;;;;5014363;28;20202;-70
2021/06/06 02:25:37;;;;;;;40.70;30.40;;;;;;;;;;5006935;28;20681;-70
2021/06/06 02:28:12;;;;;;;40.72;30.30;;;;;;;;;;5016913;28;20281;-71
2021/06/06 02:30:40;;;;;;;42.10;29.95;;;;;;;;;;5009070;28;20186;-70
2021/06/06 02:33:32;;;;;;;42.13;30.33;;;;;;;;;;5013129;28;20273;-70
2021/06/06 02:36:00;;;;;;;38.13;29.35;;;;;;;;;;5018160;28;20659;-71
2021/06/06 02:38:44;;;;;;;39.30;29.45;;;;;;;;;;5012086;28;20239;-71
2021/06/06 02:41:27;;;;;;;38.97;29.23;;;;;;;;;;5006629;28;21597;-70
2021/06/06 02:43:57;;;;;;;40.63;29.70;;;;;;;;;;5012567;28;20209;-70
2021/06/06 02:46:24;;;;;;;40.13;31.70;;;;;;;;;;5011842;28;20214;-71
2021/06/06 02:48:54;;;;;;;39.95;29.38;;;;;;;;;;5014256;28;20231;-70
2021/06/06 02:51:22;;;;;;;42.85;29.65;;;;;;;;;;5011219;28;20202;-72
2021/06/06 02:53:57;;;;;;;42.55;30.33;;;;;;;;;;5009734;28;20186;-70
2021/06/06 02:56:26;;;;;;;42.00;30.90;;;;;;;;;;5013837;28;20185;-70
2021/06/06 02:58:57;;;;;;;45.67;31.60;;;;;;;;;;5004387;28;20347;-70
2021/06/06 03:01:37;;;;;;;45.92;31.98;;;;;;;;;;5013244;28;20221;-70
2021/06/06 03:04:06;;;;;;;46.55;30.67;;;;;;;;;;5005799;28;20688;-70
2021/06/06 03:06:37;;;;;;;47.35;31.13;;;;;;;;;;5014303;28;21527;-71
2021/06/06 03:09:05;;;;;;;43.67;31.90;;;;;;;;;;5005236;28;20702;-70
2021/06/06 03:11:31;;;;;;;44.50;30.33;;;;;;;;;;5013971;28;20808;-72
2021/06/06 03:14:01;;;;;;;43.08;30.60;;;;;;;;;;5005731;28;20198;-71
2021/06/06 03:16:28;;;;;;;42.72;31.00;;;;;;;;;;5016640;28;20961;-73
2021/06/06 03:18:56;;;;;;;40.95;31.33;;;;;;;;;;5008069;28;20190;-70
2021/06/06 03:21:28;;;;;;;45.42;31.10;;;;;;;;;;5013371;28;20313;-71
2021/06/06 03:24:06;;;;;;;46.92;30.63;;;;;;;;;;5005133;28;21544;-71
2021/06/06 03:26:34;;;;;;;44.92;32.10;;;;;;;;;;5012609;28;20295;-70
2021/06/06 03:29:04;;;;;;;45.40;31.88;;;;;;;;;;5005931;28;22170;-70
2021/06/06 03:31:37;;;;;;;45.83;33.15;;;;;;;;;;5013083;28;20192;-71
2021/06/06 03:34:07;;;;;;;41.13;31.25;;;;;;;;;;5011144;28;20174;-71
2021/06/06 03:36:36;;;;;;;46.50;32.30;;;;;;;;;;5010209;28;20282;-71
2021/06/06 03:39:05;;;;;;;43.97;32.03;;;;;;;;;;5009516;28;20222;-73
2021/06/06 03:41:31;;;;;;;44.63;31.45;;;;;;;;;;5004572;28;20227;-72
2021/06/06 03:43:56;;;;;;;48.58;33.20;;;;;;;;;;5012362;28;20285;-70
2021/06/06 03:46:23;;;;;;;41.63;31.38;;;;;;;;;;5007027;28;20326;-71
2021/06/06 03:48:49;;;;;;;48.17;33.47;;;;;;;;;;5012339;28;20187;-71
2021/06/06 03:51:15;;;;;;;47.75;33.50;;;;;;;;;;5002690;28;20574;-71
2021/06/06 03:53:41;;;;;;;46.85;32.25;;;;;;;;;;5013059;28;20193;-71
2021/06/06 03:56:08;;;;;;;45.42;32.08;;;;;;;;;;5005659;28;20214;-73
2021/06/06 03:58:34;;;;;;;46.22;33.35;;;;;;;;;;5015497;28;20186;-71
2021/06/06 04:01:00;;;;;;;43.10;32.03;;;;;;;;;;5003496;28;20214;-72
2021/06/06 04:03:26;;;;;;;49.58;33.15;;;;;;;;;;5013548;28;20205;-71
2021/06/06 04:05:51;;;;;;;54.95;33.05;;;;;;;;;;5003330;28;20731;-71
2021/06/06 04:08:18;;;;;;;50.05;33.60;;;;;;;;;;5011724;28;20182;-71
2021/06/06 04:10:43;;;;;;;49.42;33.83;;;;;;;;;;4318638;28;10000850;-72
2021/06/06 04:13:09;;;;;;;49.42;33.63;;;;;;;;;;5001971;28;20194;-70
2021/06/06 04:15:35;;;;;;;51.25;34.80;;;;;;;;;;5010966;28;20680;-71
2021/06/06 04:18:17;;;;;;;46.60;31.70;;;;;;;;;;5001136;28;20190;-72
2021/06/06 04:20:44;;;;;;;52.50;34.17;;;;;;;;;;5008450;28;20392;-71
2021/06/06 04:23:10;;;;;;;50.38;34.00;;;;;;;;;;5001192;28;20194;-71
2021/06/06 04:25:36;;;;;;;49.60;33.65;;;;;;;;;;5007845;28;20198;-70
2021/06/06 04:28:01;;;;;;;48.15;32.60;;;;;;;;;;5000928;28;20772;-71
2021/06/06 04:30:28;;;;;;;54.70;32.42;;;;;;;;;;5010145;28;20202;-71
2021/06/06 04:32:54;;;;;;;47.33;32.80;;;;;;;;;;5001292;28;20536;-70
2021/06/06 04:35:19;;;;;;;48.25;34.20;;;;;;;;;;5008672;28;20194;-70
2021/06/06 04:37:45;;;;;;;46.60;32.58;;;;;;;;;;4998003;28;20198;-70
2021/06/06 04:40:12;;;;;;;45.15;32.30;;;;;;;;;;5009575;28;20213;-69
2021/06/06 04:42:38;;;;;;;55.47;34.03;;;;;;;;;;5006249;28;20245;-70
2021/06/06 04:45:10;;;;;;;48.45;32.72;;;;;;;;;;5003262;28;20195;-71
2021/06/06 04:47:35;;;;;;;49.53;32.17;;;;;;;;;;5006897;28;20220;-70
2021/06/06 04:50:01;;;;;;;50.60;32.20;;;;;;;;;;4998491;28;20190;-70
2021/06/06 04:52:26;;;;;;;46.67;33.42;;;;;;;;;;5010020;28;20198;-70
2021/06/06 04:54:52;;;;;;;54.67;31.85;;;;;;;;;;4999343;28;20202;-70
2021/06/06 04:57:17;;;;;;;53.17;33.17;;;;;;;;;;5001446;28;20736;-69
2021/06/06 04:59:42;;;;;;;51.95;32.45;;;;;;;;;;4999811;28;20205;-70
2021/06/06 05:02:11;;;;;;;52.35;32.90;;;;;;;;;;5007293;28;21108;-70
2021/06/06 05:04:37;;;;;;;45.90;32.25;;;;;;;;;;4999573;28;20540;-70
2021/06/06 05:07:03;;;;;;;48.42;31.35;;;;;;;;;;5004850;28;20206;-70
2021/06/06 05:09:29;;;;;;;50.92;32.75;;;;;;;;;;5002080;28;20554;-69
2021/06/06 05:11:54;;;;;;;47.47;32.72;;;;;;;;;;5008256;28;20190;-70
2021/06/06 05:14:20;;;;;;;51.83;31.33;;;;;;;;;;5003675;28;20273;-69
2021/06/06 05:16:46;;;;;;;48.67;32.20;;;;;;;;;;5003564;28;20182;-70
2021/06/06 05:19:12;;;;;;;50.70;32.55;;;;;;;;;;5008123;28;20182;-69
2021/06/06 05:21:38;;;;;;;44.75;31.65;;;;;;;;;;5001135;28;20194;-71
2021/06/06 05:24:05;;;;;;;52.25;30.73;;;;;;;;;;5009785;28;20537;-69
2021/06/06 05:26:30;;;;;;;43.17;30.80;;;;;;;;;;4996161;28;20214;-68
2021/06/06 05:28:56;;;;;;;49.05;31.13;;;;;;;;;;5006763;28;20639;-69
2021/06/06 05:31:22;;;;;;;47.80;30.60;;;;;;;;;;4998164;28;20681;-69
2021/06/06 05:33:48;;;;;;;43.08;29.35;;;;;;;;;;5007475;28;20780;-69
2021/06/06 05:36:14;;;;;;;39.60;27.00;;;;;;;;;;4999100;28;20197;-72
2021/06/06 05:38:39;;;;;;;39.70;27.58;;;;;;;;;;5012325;28;20179;-70
2021/06/06 05:41:06;;;;;;;45.97;28.85;;;;;;;;;;5004066;28;20263;-71
2021/06/06 05:43:31;;;;;;;37.72;26.45;;;;;;;;;;5013748;28;20287;-70
2021/06/06 05:45:58;;;;;;;39.90;27.58;;;;;;;;;;5009762;28;20619;-71
2021/06/06 05:48:24;;;;;;;40.63;26.85;;;;;;;;;;5002925;28;20193;-70
2021/06/06 05:50:52;;;;;;;41.63;26.50;;;;;;;;;;5009738;28;20226;-70
2021/06/06 05:53:17;;;;;;;40.95;28.13;;;;;;;;;;5000126;28;20198;-69
2021/06/06 05:55:44;;;;;;;37.63;27.00;;;;;;;;;;5009945;28;20194;-70
2021/06/06 05:58:11;;;;;;;39.28;26.45;;;;;;;;;;5002183;28;20182;-71
2021/06/06 06:00:40;;;;;;;36.88;26.98;;;;;;;;;;5008632;28;20673;-68
2021/06/06 06:03:06;;;;;;;37.25;25.27;;;;;;;;;;5003328;28;20194;-70
2021/06/06 06:05:33;;;;;;;38.67;25.20;;;;;;;;;;5009577;28;20220;-69
2021/06/06 06:08:09;;;;;;;39.47;27.10;;;;;;;;;;4653360;28;9999803;-69
2021/06/06 06:10:34;;;;;;;36.38;25.20;;;;;;;;;;5015208;28;20451;-71
2021/06/06 06:13:00;;;;;;;36.97;25.90;;;;;;;;;;5001643;28;20775;-68
2021/06/06 06:15:25;;;;;;;41.03;25.92;;;;;;;;;;5011722;28;20572;-70
2021/06/06 06:17:50;;;;;;;40.20;25.50;;;;;;;;;;5005236;28;20186;-70
2021/06/06 06:20:18;;;;;;;41.42;26.25;;;;;;;;;;5006745;28;20190;-71
2021/06/06 06:22:44;;;;;;;42.88;27.67;;;;;;;;;;5008336;28;20198;-71
2021/06/06 06:25:11;;;;;;;43.38;28.38;;;;;;;;;;5000842;28;20208;-69
2021/06/06 06:27:37;;;;;;;40.25;27.80;;;;;;;;;;5010293;28;20237;-69
2021/06/06 06:30:06;;;;;;;45.63;28.08;;;;;;;;;;4999277;28;20193;-70
2021/06/06 06:32:32;;;;;;;47.38;28.50;;;;;;;;;;5010030;28;20182;-70
2021/06/06 06:34:57;;;;;;;40.95;25.42;;;;;;;;;;5003502;28;20249;-70
2021/06/06 06:37:25;;;;;;;34.20;22.65;;;;;;;;;;5007736;28;20179;-68
2021/06/06 06:39:50;;;;;;;32.75;22.77;;;;;;;;;;5004657;28;20190;-69
2021/06/06 06:42:16;;;;;;;29.13;21.13;;;;;;;;;;5007990;28;20581;-70
2021/06/06 06:44:41;;;;;;;31.98;20.73;;;;;;;;;;5000733;28;20269;-70
2021/06/06 06:47:06;;;;;;;34.85;20.73;;;;;;;;;;5010524;28;20210;-71
2021/06/06 06:49:32;;;;;;;30.25;19.83;;;;;;;;;;5005664;28;20189;-70
2021/06/06 06:51:57;;;;;;;25.15;19.35;;;;;;;;;;5008493;28;20206;-69
2021/06/06 06:54:22;;;;;;;27.95;19.77;;;;;;;;;;5013701;28;20182;-69
2021/06/06 06:56:48;;;;;;;28.30;20.05;;;;;;;;;;5002759;28;20578;-70
2021/06/06 06:59:13;;;;;;;30.08;19.40;;;;;;;;;;5010790;28;20190;-68
2021/06/06 07:01:39;;;;;;;29.40;18.42;;;;;;;;;;5003272;28;20210;-70
2021/06/06 07:04:04;;;;;;;28.45;18.98;;;;;;;;;;5010334;28;20196;-71
2021/06/06 07:06:29;;;;;;;31.02;19.33;;;;;;;;;;5002582;28;20275;-69
2021/06/06 07:08:55;;;;;;;26.85;18.52;;;;;;;;;;5010349;28;20197;-70
2021/06/06 07:11:22;;;;;;;31.80;20.25;;;;;;;;;;4999992;28;20575;-70
2021/06/06 07:13:48;;;;;;;29.33;18.80;;;;;;;;;;5012191;28;20603;-70
2021/06/06 07:16:14;;;;;;;30.52;19.95;;;;;;;;;;5001949;28;20281;-70
2021/06/06 07:18:40;;;;;;;30.25;19.95;;;;;;;;;;5013106;28;20190;-69
2021/06/06 07:21:12;;;;;;;27.30;19.08;;;;;;;;;;5010481;28;20208;-70
2021/06/06 07:23:38;;;;;;;24.25;19.13;;;;;;;;;;5009204;28;22049;-70
2021/06/06 07:26:09;;;;;;;27.55;18.85;;;;;;;;;;5009248;28;20249;-69
2021/06/06 07:28:34;;;;;;;29.85;19.58;;;;;;;;;;5003751;28;20193;-70
2021/06/06 07:31:03;;;;;;;29.10;20.02;;;;;;;;;;5010247;28;20198;-69
2021/06/06 07:33:33;;;;;;;29.67;19.85;;;;;;;;;;5001864;28;20328;-71
2021/06/06 07:36:01;;;;;;;30.33;20.05;;;;;;;;;;5011615;28;20603;-70
2021/06/06 07:38:28;;;;;;;30.45;20.70;;;;;;;;;;5001469;28;20642;-70
2021/06/06 07:40:55;;;;;;;30.40;19.70;;;;;;;;;;5013837;28;20196;-70
2021/06/06 07:43:21;;;;;;;27.73;19.90;;;;;;;;;;5003192;28;20230;-71
2021/06/06 07:45:47;;;;;;;26.55;19.15;;;;;;;;;;5015664;28;20216;-71
2021/06/06 07:48:13;;;;;;;29.75;19.52;;;;;;;;;;5003298;28;20195;-71
2021/06/06 07:50:43;;;;;;;30.83;20.27;;;;;;;;;;5013049;28;20821;-70
2021/06/06 07:53:10;;;;;;;32.28;19.38;;;;;;;;;;5003820;28;22239;-71
2021/06/06 07:55:35;;;;;;;28.95;19.42;;;;;;;;;;5012773;28;20187;-71
2021/06/06 07:58:01;;;;;;;34.45;19.77;;;;;;;;;;5012606;28;20195;-71
2021/06/06 08:00:35;;;;;;;29.92;19.75;;;;;;;;;;5005164;28;20281;-72
2021/06/06 08:03:00;;;;;;;31.02;20.92;;;;;;;;;;5010500;28;20190;-72
2021/06/06 08:05:26;;;;;;;31.75;19.70;;;;;;;;;;5000683;28;20244;-70
2021/06/06 08:07:52;;;;;;;28.13;20.38;;;;;;;;;;5011707;28;20214;-74
2021/06/06 08:10:21;;;;;;;28.02;19.60;;;;;;;;;;5001481;28;23076;-71
2021/06/06 08:12:46;;;;;;;31.70;20.55;;;;;;;;;;5011127;28;20197;-71
2021/06/06 08:15:13;;;;;;;28.15;19.77;;;;;;;;;;5002680;28;20533;-70
2021/06/06 08:17:38;;;;;;;28.38;18.48;;;;;;;;;;5008928;28;20205;-70
2021/06/06 08:20:11;;;;;;;26.77;18.40;;;;;;;;;;5001810;28;20202;-70
2021/06/06 08:22:37;;;;;;;22.63;17.50;;;;;;;;;;5009960;28;20189;-68
2021/06/06 08:25:08;;;;;;;30.42;19.05;;;;;;;;;;5002093;28;20209;-69
2021/06/06 08:27:35;;;;;;;26.27;19.60;;;;;;;;;;5013591;28;20205;-71
2021/06/06 08:30:00;;;;;;;26.48;19.48;;;;;;;;;;5002514;28;20194;-69
2021/06/06 08:32:25;;;;;;;26.92;19.75;;;;;;;;;;5010993;28;20645;-69
2021/06/06 08:34:51;;;;;;;30.42;21.95;;;;;;;;;;5011033;28;20645;-69
2021/06/06 08:37:16;;;;;;;29.58;21.08;;;;;;;;;;5001392;28;20973;-69
2021/06/06 08:39:42;;;;;;;26.95;19.70;;;;;;;;;;5009127;28;20190;-69
2021/06/06 08:42:18;;;;;;;26.08;19.50;;;;;;;;;;5002841;28;20225;-69
2021/06/06 08:44:54;;;;;;;24.65;18.30;;;;;;;;;;5014482;28;20178;-69
2021/06/06 08:47:25;;;;;;;26.25;18.83;;;;;;;;;;5000708;28;20233;-69
2021/06/06 08:49:56;;;;;;;26.05;19.15;;;;;;;;;;5010768;28;20188;-69
2021/06/06 08:52:39;;;;;;;28.55;19.77;;;;;;;;;;5001597;28;20225;-70
2021/06/06 08:55:30;;;;;;;28.38;20.08;;;;;;;;;;5008309;28;20189;-69
2021/06/06 08:58:07;;;;;;;27.10;19.45;;;;;;;;;;5002151;28;20190;-69
2021/06/06 09:00:35;;;;;;;25.50;19.23;;;;;;;;;;5008702;28;20205;-70
2021/06/06 09:03:04;;;;;;;27.05;20.25;;;;;;;;;;5005310;28;20284;-69
2021/06/06 09:05:36;;;;;;;26.55;19.90;;;;;;;;;;5009984;28;20214;-70
2021/06/06 09:08:05;;;;;;;27.80;19.25;;;;;;;;;;5002106;28;20205;-72
2021/06/06 09:10:38;;;;;;;27.85;19.92;;;;;;;;;;5011182;28;20215;-69
2021/06/06 09:13:07;;;;;;;29.35;20.17;;;;;;;;;;5003303;28;20198;-70
2021/06/06 09:15:33;;;;;;;28.60;19.50;;;;;;;;;;5010851;28;20186;-69
2021/06/06 09:18:14;;;;;;;28.55;20.35;;;;;;;;;;5004752;28;20191;-69
2021/06/06 09:20:42;;;;;;;30.83;20.30;;;;;;;;;;5011541;28;20190;-68
2021/06/06 09:23:10;;;;;;;29.08;21.60;;;;;;;;;;5004114;28;20211;-69
2021/06/06 09:25:40;;;;;;;29.95;20.70;;;;;;;;;;5009111;28;20189;-68
2021/06/06 09:28:18;;;;;;;27.92;21.42;;;;;;;;;;5001603;28;21337;-69
2021/06/06 09:30:44;;;;;;;25.42;19.60;;;;;;;;;;5013687;28;20191;-68
2021/06/06 09:33:19;;;;;;;27.83;20.10;;;;;;;;;;5001577;28;20196;-73
2021/06/06 09:36:01;;;;;;;28.15;19.35;;;;;;;;;;5011140;28;20276;-70
2021/06/06 09:38:32;;;;;;;30.52;20.70;;;;;;;;;;5001281;28;20187;-69
2021/06/06 09:41:12;;;;;;;27.33;19.52;;;;;;;;;;5012105;28;20556;-70
2021/06/06 09:43:38;;;;;;;29.80;20.23;;;;;;;;;;5000611;28;20237;-70
2021/06/06 09:46:17;;;;;;;28.27;20.42;;;;;;;;;;5010911;28;20214;-73
2021/06/06 09:48:44;;;;;;;26.67;19.55;;;;;;;;;;5010545;28;20191;-71
2021/06/06 09:51:31;;;;;;;31.98;22.45;;;;;;;;;;5006904;28;20220;-73
2021/06/06 09:54:09;;;;;;;34.40;21.42;;;;;;;;;;5010198;28;20733;-73
2021/06/06 09:56:35;;;;;;;32.78;22.35;;;;;;;;;;5011967;28;20194;-71
2021/06/06 09:59:31;;;;;;;32.17;23.40;;;;;;;;;;5009795;28;20194;-73
2021/06/06 10:02:28;;;;;;;30.42;21.55;;;;;;;;;;5009402;28;20702;-71
2021/06/06 10:05:11;;;;;;;29.77;20.73;;;;;;;;;;5002705;28;25775;-70
2021/06/06 10:07:40;;;;;;;28.70;20.85;;;;;;;;;;5010982;28;20190;-73
2021/06/06 10:10:17;;;;;;;29.52;20.23;;;;;;;;;;5001240;28;20739;-71
2021/06/06 10:12:46;;;;;;;28.27;20.55;;;;;;;;;;5012093;28;20823;-71
2021/06/06 10:15:41;;;;;;;27.65;19.10;;;;;;;;;;5007259;28;20186;-72
2021/06/06 10:18:35;;;;;;;23.73;17.58;;;;;;;;;;5009950;28;20170;-73
2021/06/06 10:21:30;;;;;;;23.65;17.27;;;;;;;;;;4998903;28;20682;-73
2021/06/06 10:24:03;;;;;;;18.48;14.63;;;;;;;;;;5013715;28;20559;-74
2021/06/06 10:27:09;;;;;;;22.00;15.82;;;;;;;;;;5006605;28;20683;-72
2021/06/06 10:29:43;;;;;;;22.08;16.73;;;;;;;;;;5008233;28;20616;-72
2021/06/06 10:32:33;;;;;;;23.42;15.93;;;;;;;;;;5005170;28;20194;-75
2021/06/06 10:35:09;;;;;;;25.83;16.83;;;;;;;;;;5017003;28;20198;-70
2021/06/06 10:37:35;;;;;;;20.65;14.98;;;;;;;;;;5004607;28;20198;-72
2021/06/06 10:40:10;;;;;;;21.10;15.20;;;;;;;;;;5015193;28;20202;-69
2021/06/06 10:42:47;;;;;;;22.35;15.40;;;;;;;;;;5007475;28;20635;-75
2021/06/06 10:45:25;;;;;;;19.35;14.13;;;;;;;;;;5014047;28;20192;-71
2021/06/06 10:48:02;;;;;;;16.60;14.48;;;;;;;;;;5005972;28;20287;-74
2021/06/06 10:50:49;;;;;;;20.23;15.57;;;;;;;;;;5014254;28;20185;-73
2021/06/06 10:53:22;;;;;;;21.55;15.60;;;;;;;;;;5004185;28;20238;-72
2021/06/06 10:56:09;;;;;;;18.38;15.90;;;;;;;;;;5014594;28;20211;-73
2021/06/06 10:58:42;;;;;;;19.67;15.38;;;;;;;;;;5004867;28;20208;-74
2021/06/06 11:01:16;;;;;;;21.48;14.95;;;;;;;;;;5013021;28;20240;-73
2021/06/06 11:03:42;;;;;;;19.25;14.52;;;;;;;;;;5006092;28;20262;-74
2021/06/06 11:06:31;;;;;;;28.08;14.80;;;;;;;;;;5015771;28;20329;-70
2021/06/06 11:08:57;;;;;;;18.50;13.90;;;;;;;;;;5002140;28;20208;-73
2021/06/06 11:11:27;;;;;;;19.40;13.50;;;;;;;;;;5014997;28;20598;-70
2021/06/06 11:14:14;;;;;;;17.25;13.10;;;;;;;;;;5006510;28;20293;-70
2021/06/06 11:16:43;;;;;;;15.32;11.82;;;;;;;;;;5012759;28;20507;-72
2021/06/06 11:19:20;;;;;;;15.68;12.10;;;;;;;;;;5003679;28;20194;-71
2021/06/06 11:22:11;;;;;;;17.25;12.40;;;;;;;;;;5013277;28;20866;-70
2021/06/06 11:24:39;;;;;;;16.75;12.10;;;;;;;;;;5003771;28;20198;-70
2021/06/06 11:27:05;;;;;;;14.77;11.38;;;;;;;;;;5019336;28;20215;-71
2021/06/06 11:29:49;;;;;;;15.27;11.30;;;;;;;;;;5002161;28;20541;-72
2021/06/06 11:32:33;;;;;;;15.05;10.68;;;;;;;;;;5014997;28;20188;-73
2021/06/06 11:35:05;;;;;;;12.30;10.10;;;;;;;;;;5006154;28;20204;-72
2021/06/06 11:37:30;;;;;;;13.55;10.65;;;;;;;;;;5011479;28;20214;-72
2021/06/06 11:39:59;;;;;;;15.70;11.77;;;;;;;;;;5006951;28;20671;-72
2021/06/06 11:42:30;;;;;;;14.38;10.48;;;;;;;;;;5010821;28;20713;-71
2021/06/06 11:45:10;;;;;;;14.20;11.23;;;;;;;;;;5013373;28;20198;-73
2021/06/06 11:47:44;;;;;;;17.20;11.52;;;;;;;;;;5009538;28;20214;-72
2021/06/06 11:50:18;;;;;;;13.25;11.05;;;;;;;;;;5009622;28;20189;-73
2021/06/06 11:52:59;;;;;;;15.23;11.52;;;;;;;;;;5006568;28;20529;-70
2021/06/06 11:55:24;;;;;;;16.98;11.60;;;;;;;;;;5011128;28;20701;-69
2021/06/06 11:58:04;;;;;;;13.98;11.00;;;;;;;;;;5002309;28;20283;-71
2021/06/06 12:00:36;;;;;;;13.75;10.38;;;;;;;;;;5010736;28;20221;-71
2021/06/06 12:03:14;;;;;;;14.68;11.35;;;;;;;;;;5002288;28;20232;-75
2021/06/06 12:05:52;;;;;;;15.68;10.52;;;;;;;;;;5011721;28;20185;-69
2021/06/06 12:08:18;;;;;;;14.27;11.13;;;;;;;;;;5004073;28;20884;-69
2021/06/06 12:10:56;;;;;;;18.30;10.77;;;;;;;;;;5009943;28;20642;-70
2021/06/06 12:13:29;;;;;;;16.98;10.95;;;;;;;;;;5001687;28;20197;-71
2021/06/06 12:16:10;;;;;;;15.60;10.98;;;;;;;;;;5009904;28;20257;-70
2021/06/06 12:18:38;;;;;;;16.52;11.32;;;;;;;;;;5002511;28;20194;-70
2021/06/06 12:21:11;;;;;;;12.82;10.38;;;;;;;;;;5010581;28;20642;-71
2021/06/06 12:23:49;;;;;;;14.55;10.60;;;;;;;;;;5000513;28;20650;-70
2021/06/06 12:26:24;;;;;;;13.73;10.13;;;;;;;;;;5009273;28;20700;-71
2021/06/06 12:28:52;;;;;;;14.18;10.50;;;;;;;;;;5003331;28;20252;-70
2021/06/06 12:31:20;;;;;;;14.95;10.40;;;;;;;;;;5010983;28;20175;-72
2021/06/06 12:33:46;;;;;;;16.13;10.85;;;;;;;;;;5001324;28;20544;-71
2021/06/06 12:36:19;;;;;;;13.63;10.82;;;;;;;;;;5009664;28;20190;-71
2021/06/06 12:38:46;;;;;;;14.93;10.02;;;;;;;;;;5002081;28;20674;-72
2021/06/06 12:41:13;;;;;;;15.23;10.60;;;;;;;;;;5013971;28;20224;-71
2021/06/06 12:43:43;;;;;;;15.63;11.20;;;;;;;;;;4998704;28;20485;-71
2021/06/06 12:46:11;;;;;;;14.80;10.55;;;;;;;;;;5007907;28;20208;-70
2021/06/06 12:48:40;;;;;;;13.32;10.02;;;;;;;;;;4998111;28;20194;-70
2021/06/06 12:51:17;;;;;;;13.65;9.98;;;;;;;;;;5006366;28;20551;-70
2021/06/06 12:53:43;;;;;;;11.65;9.82;;;;;;;;;;5009102;28;20617;-71
2021/06/06 12:56:16;;;;;;;14.95;10.80;;;;;;;;;;5003062;28;20189;-71
2021/06/06 12:58:43;;;;;;;13.77;10.82;;;;;;;;;;5015727;28;20513;-70
2021/06/06 13:01:26;;;;;;;13.13;10.50;;;;;;;;;;5002566;28;20224;-70
2021/06/06 13:03:53;;;;;;;13.52;10.23;;;;;;;;;;5010125;28;20203;-72
2021/06/06 13:06:23;;;;;;;14.25;10.38;;;;;;;;;;4999242;28;20296;-73
2021/06/06 13:08:50;;;;;;;17.02;11.20;;;;;;;;;;5008885;28;20571;-70
2021/06/06 13:11:18;;;;;;;14.63;11.40;;;;;;;;;;4999925;28;20277;-71
2021/06/06 13:13:50;;;;;;;16.65;11.95;;;;;;;;;;5024545;28;20542;-71
2021/06/06 13:16:30;;;;;;;15.93;12.07;;;;;;;;;;5001364;28;20218;-70
2021/06/06 13:19:16;;;;;;;18.25;12.23;;;;;;;;;;5008736;28;20197;-72
2021/06/06 13:22:02;;;;;;;14.38;11.88;;;;;;;;;;4998694;28;20269;-69
2021/06/06 13:24:30;;;;;;;14.32;12.15;;;;;;;;;;5010465;28;20608;-71
2021/06/06 13:27:05;;;;;;;18.40;12.65;;;;;;;;;;5002234;28;20237;-70
2021/06/06 13:29:46;;;;;;;14.90;12.35;;;;;;;;;;5009205;28;20279;-70
2021/06/06 13:32:19;;;;;;;14.95;12.30;;;;;;;;;;4998839;28;20198;-71
2021/06/06 13:34:49;;;;;;;16.10;12.63;;;;;;;;;;5006163;28;20220;-73
2021/06/06 13:37:15;;;;;;;18.73;13.20;;;;;;;;;;5002174;28;20208;-70
2021/06/06 13:39:41;;;;;;;15.50;12.90;;;;;;;;;;5010033;28;20185;-70
2021/06/06 13:42:10;;;;;;;19.00;13.57;;;;;;;;;;4998311;28;20245;-71
2021/06/06 13:44:36;;;;;;;17.58;12.95;;;;;;;;;;5010032;28;20182;-70
2021/06/06 13:47:01;;;;;;;17.25;13.40;;;;;;;;;;4999171;28;20522;-70
2021/06/06 13:49:29;;;;;;;17.45;14.45;;;;;;;;;;5008872;28;20174;-71
2021/06/06 13:51:56;;;;;;;18.10;13.25;;;;;;;;;;5001974;28;20178;-72
2021/06/06 13:54:21;;;;;;;17.45;12.98;;;;;;;;;;5009794;28;20625;-71
2021/06/06 13:56:47;;;;;;;18.80;13.15;;;;;;;;;;5010372;28;20280;-71
2021/06/06 13:59:12;;;;;;;16.83;13.32;;;;;;;;;;5005497;28;20216;-72
2021/06/06 14:01:41;;;;;;;18.00;13.35;;;;;;;;;;5012826;28;20615;-71
2021/06/06 14:04:08;;;;;;;16.95;14.32;;;;;;;;;;5005246;28;20198;-70
2021/06/06 14:06:34;;;;;;;17.77;13.77;;;;;;;;;;5010220;28;20210;-71
2021/06/06 14:09:00;;;;;;;19.92;13.85;;;;;;;;;;5006884;28;20231;-71
2021/06/06 14:11:31;;;;;;;18.50;13.93;;;;;;;;;;5009702;28;20197;-71
2021/06/06 14:13:57;;;;;;;18.30;14.23;;;;;;;;;;5001768;28;20192;-71
2021/06/06 14:16:26;;;;;;;18.20;13.95;;;;;;;;;;5006743;28;20589;-72
2021/06/06 14:18:54;;;;;;;19.02;13.65;;;;;;;;;;4998777;28;20550;-71
2021/06/06 14:21:24;;;;;;;19.75;14.13;;;;;;;;;;5009472;28;20615;-72
2021/06/06 14:23:52;;;;;;;18.13;13.40;;;;;;;;;;5001359;28;20236;-72
2021/06/06 14:26:20;;;;;;;23.92;14.50;;;;;;;;;;5010842;28;20202;-72
2021/06/06 14:28:46;;;;;;;21.25;14.07;;;;;;;;;;5004806;28;20218;-70
2021/06/06 14:31:11;;;;;;;19.10;13.63;;;;;;;;;;5004946;28;20277;-71
2021/06/06 14:33:36;;;;;;;18.33;13.88;;;;;;;;;;5009553;28;20608;-71